createdAt,value
2019-05-30T00:19:23.601Z,1.60
2019-05-30T00:22:12.079Z,1.50
2019-05-30T00:25:00.469Z,1.60
2019-05-30T00:27:48.827Z,1.40
2019-05-30T00:30:37.580Z,1.50
2019-05-30T00:33:26.050Z,1.60
2019-05-30T00:36:14.724Z,1.52
2019-05-30T00:39:04.500Z,1.50
2019-05-30T00:41:53.046Z,1.70
2019-05-30T00:44:41.612Z,1.57
2019-05-30T00:47:29.982Z,1.82
2019-05-30T00:50:18.749Z,1.35
2019-05-30T00:53:07.478Z,1.82
2019-05-30T00:55:56.714Z,1.50
2019-05-30T00:58:45.289Z,1.50
2019-05-30T01:01:35.148Z,1.40
2019-05-30T01:04:23.879Z,1.70
2019-05-30T01:07:12.304Z,1.65
2019-05-30T01:10:01.000Z,1.70
2019-05-30T01:12:49.953Z,1.60
2019-05-30T01:15:38.527Z,1.87
2019-05-30T01:18:27.409Z,1.70
2019-05-30T01:21:15.916Z,1.50
2019-05-30T01:24:05.662Z,1.72
2019-05-30T01:26:54.565Z,1.40
2019-05-30T01:29:42.776Z,1.45
2019-05-30T01:32:31.472Z,1.42
2019-05-30T01:35:20.743Z,2.05
2019-05-30T01:38:09.123Z,1.70
2019-05-30T01:40:59.669Z,1.65
2019-05-30T01:43:48.624Z,1.80
2019-05-30T01:46:37.100Z,1.37
2019-05-30T01:49:26.401Z,1.50
2019-05-30T01:52:15.076Z,1.60
2019-05-30T01:55:04.680Z,1.55
2019-05-30T01:57:53.302Z,1.60
2019-05-30T02:00:41.621Z,1.40
2019-05-30T02:03:30.167Z,1.52
2019-05-30T02:06:18.942Z,1.80
2019-05-30T02:09:08.028Z,1.40
2019-05-30T02:11:56.497Z,1.80
2019-05-30T02:14:45.200Z,1.40
2019-05-30T02:17:34.051Z,1.40
2019-05-30T02:20:22.943Z,1.62
2019-05-30T02:23:11.612Z,1.40
2019-05-30T02:26:00.361Z,1.70
2019-05-30T02:28:48.828Z,2.02
2019-05-30T02:31:39.471Z,1.60
2019-05-30T02:34:27.734Z,1.40
2019-05-30T02:37:16.363Z,1.42
2019-05-30T02:40:09.807Z,1.50
2019-05-30T02:42:56.502Z,1.57
2019-05-30T02:45:44.932Z,1.30
2019-05-30T02:48:33.744Z,1.90
2019-05-30T02:51:22.222Z,1.70
2019-05-30T02:54:11.566Z,1.62
2019-05-30T02:57:01.463Z,1.42
2019-05-30T02:59:50.204Z,1.37
2019-05-30T03:02:38.707Z,1.37
2019-05-30T03:05:27.544Z,1.70
2019-05-30T03:08:15.775Z,1.60
2019-05-30T03:11:05.088Z,2.02
2019-05-30T03:13:54.807Z,1.50
2019-05-30T03:16:43.466Z,1.52
2019-05-30T03:19:31.980Z,1.50
2019-05-30T03:22:20.359Z,1.60
2019-05-30T03:25:11.095Z,1.70
2019-05-30T03:27:59.264Z,1.80
2019-05-30T03:30:47.832Z,1.87
2019-05-30T03:33:41.721Z,1.72
2019-05-30T03:36:31.181Z,1.50
2019-05-30T03:39:17.655Z,1.50
2019-05-30T03:42:07.084Z,1.77
2019-05-30T03:44:55.762Z,1.40
2019-05-30T03:47:47.080Z,1.70
2019-05-30T03:50:38.868Z,1.52
2019-05-30T03:53:27.583Z,1.95
2019-05-30T03:56:28.034Z,1.70
2019-05-30T03:59:31.271Z,1.77
2019-05-30T04:02:28.934Z,1.65
2019-05-30T04:05:20.328Z,1.60
2019-05-30T04:08:10.055Z,1.32
2019-05-30T04:11:02.564Z,1.40
2019-05-30T04:13:56.938Z,1.60
2019-05-30T04:16:45.597Z,1.42
2019-05-30T04:19:34.342Z,1.47
2019-05-30T04:22:22.740Z,1.45
2019-05-30T04:25:12.562Z,1.32
2019-05-30T04:28:01.645Z,1.60
2019-05-30T04:30:50.403Z,1.25
2019-05-30T04:33:39.062Z,1.50
2019-05-30T04:36:28.219Z,1.50
2019-05-30T04:39:17.159Z,1.25
2019-05-30T04:42:06.040Z,1.27
2019-05-30T04:44:54.783Z,1.32
2019-05-30T04:47:43.548Z,1.60
2019-05-30T04:50:32.498Z,1.07
2019-05-30T04:53:21.222Z,1.00
2019-05-30T04:56:10.339Z,1.10
2019-05-30T04:58:59.074Z,1.50
2019-05-30T05:01:47.421Z,1.02
2019-05-30T05:04:35.740Z,1.15
2019-05-30T05:07:24.396Z,1.00
2019-05-30T05:10:13.966Z,0.90
2019-05-30T05:13:02.665Z,1.00
2019-05-30T05:15:51.309Z,1.30
2019-05-30T05:18:40.452Z,1.00
2019-05-30T05:21:28.899Z,0.95
2019-05-30T05:24:17.380Z,0.90
2019-05-30T05:27:09.575Z,1.10
2019-05-30T05:29:55.996Z,1.12
2019-05-30T05:32:44.592Z,0.78
2019-05-30T05:35:33.040Z,0.90
2019-05-30T05:38:22.435Z,0.80
2019-05-30T05:41:11.208Z,0.60
2019-05-30T05:43:59.772Z,0.80
2019-05-30T05:46:48.782Z,0.70
2019-05-30T05:49:37.131Z,0.80
2019-05-30T05:52:25.628Z,0.95
2019-05-30T05:55:14.716Z,0.82
2019-05-30T05:58:04.349Z,0.65
2019-05-30T06:00:53.296Z,0.57
2019-05-30T06:03:42.069Z,0.65
2019-05-30T06:06:31.646Z,0.60
2019-05-30T06:09:20.614Z,0.50
2019-05-30T06:12:09.894Z,0.70
2019-05-30T06:14:58.410Z,0.70
2019-05-30T06:17:47.253Z,0.80
2019-05-30T06:20:36.096Z,0.70
2019-05-30T06:23:25.790Z,0.82
2019-05-30T06:26:14.409Z,0.70
2019-05-30T06:29:02.752Z,0.80
2019-05-30T06:31:51.525Z,0.60
2019-05-30T06:34:40.403Z,0.65
2019-05-30T06:37:29.531Z,0.70
2019-05-30T06:40:19.349Z,0.70
2019-05-30T06:43:10.986Z,0.78
2019-05-30T06:45:59.159Z,0.70
2019-05-30T06:48:47.881Z,0.60
2019-05-30T06:51:36.240Z,0.80
2019-05-30T06:54:25.948Z,0.70
2019-05-30T06:57:15.264Z,0.70
2019-05-30T07:00:08.958Z,0.70
2019-05-30T07:02:57.883Z,0.75
2019-05-30T07:05:46.679Z,0.62
2019-05-30T07:08:35.370Z,0.60
2019-05-30T07:11:24.734Z,0.55
2019-05-30T07:14:13.336Z,0.57
2019-05-30T07:17:02.080Z,0.50
2019-05-30T07:19:50.683Z,0.60
2019-05-30T07:22:39.417Z,0.55
2019-05-30T07:25:27.931Z,0.80
2019-05-30T07:28:16.884Z,0.50
2019-05-30T07:31:05.686Z,0.68
2019-05-30T07:33:54.428Z,0.68
2019-05-30T07:36:42.798Z,0.60
2019-05-30T07:39:35.045Z,0.60
2019-05-30T07:42:21.882Z,0.50
2019-05-30T07:45:13.421Z,0.68
2019-05-30T07:48:02.003Z,0.60
2019-05-30T07:50:50.575Z,0.80
2019-05-30T07:53:39.197Z,0.80
2019-05-30T07:56:27.606Z,0.80
2019-05-30T07:59:15.946Z,0.80
2019-05-30T08:02:04.522Z,0.88
2019-05-30T08:04:53.346Z,0.62
2019-05-30T08:07:41.783Z,0.55
2019-05-30T08:10:30.259Z,0.60
2019-05-30T08:13:18.688Z,0.95
2019-05-30T08:16:07.539Z,0.70
2019-05-30T08:18:56.086Z,0.70
2019-05-30T08:21:44.702Z,0.72
2019-05-30T08:24:34.397Z,0.50
2019-05-30T08:27:23.212Z,0.60
2019-05-30T08:30:14.151Z,0.90
2019-05-30T08:33:02.786Z,0.80
2019-05-30T08:35:51.446Z,0.80
2019-05-30T08:38:40.088Z,0.80
2019-05-30T08:41:29.105Z,0.72
2019-05-30T08:44:17.907Z,0.90
2019-05-30T08:47:06.444Z,0.90
2019-05-30T08:49:54.814Z,0.60
2019-05-30T08:52:43.136Z,0.90
2019-05-30T08:55:32.292Z,0.90
2019-05-30T08:58:21.013Z,0.70
2019-05-30T09:01:09.924Z,1.00
2019-05-30T09:03:58.296Z,0.90
2019-05-30T09:06:46.466Z,0.62
2019-05-30T09:09:36.108Z,0.80
2019-05-30T09:12:24.575Z,1.00
2019-05-30T09:15:15.928Z,0.65
2019-05-30T09:18:04.502Z,0.90
2019-05-30T09:20:54.121Z,0.75
2019-05-30T09:23:43.803Z,0.40
2019-05-30T09:26:32.524Z,0.65
2019-05-30T09:29:21.286Z,0.60
2019-05-30T09:32:09.912Z,0.70
2019-05-30T09:34:58.617Z,0.60
2019-05-30T09:37:47.817Z,0.50
2019-05-30T09:40:36.704Z,0.72
2019-05-30T09:43:26.557Z,0.60
2019-05-30T09:46:27.235Z,0.90
2019-05-30T09:49:15.773Z,0.68
2019-05-30T09:52:04.496Z,0.70
2019-05-30T09:54:53.210Z,0.75
2019-05-30T09:57:43.043Z,0.70
2019-05-30T10:00:34.075Z,0.90
2019-05-30T10:03:22.931Z,0.70
2019-05-30T10:06:28.170Z,0.70
2019-05-30T10:09:02.805Z,0.90
2019-05-30T10:11:53.494Z,0.60
2019-05-30T10:14:42.173Z,0.60
2019-05-30T10:17:31.851Z,0.70
2019-05-30T10:20:20.702Z,0.90
2019-05-30T10:23:09.219Z,0.72
2019-05-30T10:25:57.894Z,0.90
2019-05-30T10:28:47.763Z,0.90
2019-05-30T10:31:36.592Z,1.07
2019-05-30T10:34:25.561Z,0.80
2019-05-30T10:37:14.423Z,0.70
2019-05-30T10:40:04.221Z,1.15
2019-05-30T10:42:55.009Z,0.85
2019-05-30T10:45:44.831Z,1.02
2019-05-30T10:48:35.856Z,1.00
2019-05-30T10:51:23.999Z,0.90
2019-05-30T10:54:12.594Z,1.10
2019-05-30T10:57:01.682Z,0.82
2019-05-30T10:59:50.866Z,0.80
2019-05-30T11:02:39.318Z,0.95
2019-05-30T11:05:27.696Z,1.12
2019-05-30T11:08:26.994Z,2.20
2019-05-30T11:11:15.412Z,3.08
2019-05-30T11:14:03.889Z,2.55
2019-05-30T11:16:53.747Z,2.40
2019-05-30T11:19:42.725Z,2.62
2019-05-30T11:22:31.148Z,3.25
2019-05-30T11:25:19.720Z,2.80
2019-05-30T11:28:08.837Z,2.95
2019-05-30T11:30:58.843Z,2.50
2019-05-30T11:33:48.774Z,2.70
2019-05-30T11:36:38.130Z,3.00
2019-05-30T11:39:29.393Z,2.70
2019-05-30T11:42:18.058Z,2.90
2019-05-30T11:45:08.416Z,2.72
2019-05-30T11:47:58.056Z,2.30
2019-05-30T11:50:50.799Z,2.40
2019-05-30T11:53:49.761Z,2.47
2019-05-30T11:56:40.164Z,3.00
2019-05-30T11:59:29.179Z,2.30
2019-05-30T12:02:17.555Z,2.30
2019-05-30T12:05:07.865Z,1.90
2019-05-30T12:07:57.102Z,1.90
2019-05-30T12:10:45.933Z,1.57
2019-05-30T12:13:34.564Z,1.80
2019-05-30T12:16:22.930Z,1.80
2019-05-30T12:19:11.813Z,1.60
2019-05-30T12:22:00.245Z,2.12
2019-05-30T12:24:49.068Z,1.77
2019-05-30T12:27:37.420Z,2.00
2019-05-30T12:30:26.292Z,2.00
2019-05-30T12:33:14.768Z,2.10
2019-05-30T12:36:03.512Z,2.45
2019-05-30T12:38:52.236Z,2.08
2019-05-30T12:41:41.715Z,1.90
2019-05-30T12:44:30.085Z,2.15
2019-05-30T12:47:18.542Z,2.30
2019-05-30T12:50:09.295Z,2.70
2019-05-30T12:52:57.723Z,2.58
2019-05-30T12:55:46.666Z,2.55
2019-05-30T12:58:35.229Z,2.52
2019-05-30T13:01:27.368Z,2.52
2019-05-30T13:04:14.734Z,2.42
2019-05-30T13:07:03.566Z,2.42
2019-05-30T13:09:52.413Z,2.92
2019-05-30T13:12:41.133Z,2.58
2019-05-30T13:15:29.451Z,2.90
2019-05-30T13:18:17.929Z,2.60
2019-05-30T13:21:06.764Z,2.62
2019-05-30T13:23:55.540Z,2.00
2019-05-30T13:26:44.042Z,1.85
2019-05-30T13:29:32.804Z,1.70
2019-05-30T13:32:21.321Z,1.95
2019-05-30T13:35:10.048Z,1.80
2019-05-30T13:37:59.083Z,2.05
2019-05-30T13:40:47.718Z,2.30
2019-05-30T13:43:35.925Z,2.00
2019-05-30T13:46:24.497Z,2.08
2019-05-30T13:49:13.239Z,2.40
2019-05-30T13:52:03.396Z,3.12
2019-05-30T13:54:52.085Z,3.10
2019-05-30T13:57:40.691Z,2.92
2019-05-30T14:00:29.139Z,2.95
2019-05-30T14:03:17.596Z,2.90
2019-05-30T14:06:08.357Z,2.95
2019-05-30T14:08:57.072Z,2.85
2019-05-30T14:11:45.776Z,3.30
2019-05-30T14:14:34.168Z,2.85
2019-05-30T14:17:22.799Z,3.40
2019-05-30T14:20:13.683Z,3.10
2019-05-30T14:23:03.223Z,3.20
2019-05-30T14:25:52.042Z,3.60
2019-05-30T14:28:40.540Z,3.25
2019-05-30T14:31:28.938Z,3.45
2019-05-30T14:34:17.525Z,3.35
2019-05-30T14:37:06.388Z,4.20
2019-05-30T14:39:54.854Z,4.20
2019-05-30T14:42:43.626Z,4.15
2019-05-30T14:45:32.291Z,3.10
2019-05-30T14:48:20.936Z,3.10
2019-05-30T14:51:10.976Z,3.20
2019-05-30T14:54:00.028Z,3.52
2019-05-30T14:56:48.673Z,3.80
2019-05-30T14:59:37.416Z,3.40
2019-05-30T15:02:26.051Z,3.40
2019-05-30T15:05:15.791Z,3.45
2019-05-30T15:08:04.616Z,3.20
2019-05-30T15:10:53.296Z,3.60
2019-05-30T15:13:41.507Z,3.58
2019-05-30T15:16:31.324Z,3.30
2019-05-30T15:19:19.860Z,3.17
2019-05-30T15:22:09.531Z,2.10
2019-05-30T15:24:58.341Z,1.25
2019-05-30T15:27:47.203Z,0.80
2019-05-30T15:30:35.641Z,0.90
2019-05-30T15:33:24.099Z,0.90
2019-05-30T15:36:12.990Z,3.70
2019-05-30T15:39:01.468Z,1.80
2019-05-30T15:41:50.866Z,1.30
2019-05-30T15:44:39.713Z,1.20
2019-05-30T15:47:28.426Z,1.00
2019-05-30T15:50:18.665Z,0.90
2019-05-30T15:53:09.443Z,1.00
2019-05-30T15:55:58.014Z,1.10
2019-05-30T15:58:48.234Z,0.98
2019-05-30T16:01:36.968Z,1.47
2019-05-30T16:04:25.642Z,1.10
2019-05-30T16:07:14.658Z,1.40
2019-05-30T16:10:06.240Z,1.30
2019-05-30T16:12:54.993Z,1.12
2019-05-30T16:15:44.499Z,1.00
2019-05-30T16:18:33.612Z,1.00
2019-05-30T16:21:22.485Z,1.07
2019-05-30T16:24:12.298Z,0.98
2019-05-30T16:27:01.231Z,0.72
2019-05-30T16:29:50.791Z,1.10
2019-05-30T16:32:39.416Z,1.02
2019-05-30T16:35:28.100Z,1.30
2019-05-30T16:38:16.558Z,1.40
2019-05-30T16:41:05.055Z,1.47
2019-05-30T16:43:53.808Z,1.62
2019-05-30T16:46:42.040Z,1.30
2019-05-30T16:49:30.716Z,1.10
2019-05-30T16:52:21.010Z,1.20
2019-05-30T16:55:10.180Z,1.30
2019-05-30T16:57:58.888Z,1.20
2019-05-30T17:00:47.332Z,1.10
2019-05-30T17:03:35.927Z,1.42
2019-05-30T17:06:24.646Z,1.37
2019-05-30T17:09:13.179Z,1.27
2019-05-30T17:12:02.049Z,1.30
2019-05-30T17:14:50.508Z,1.22
2019-05-30T17:17:38.973Z,1.15
2019-05-30T17:20:27.364Z,1.32
2019-05-30T17:23:16.726Z,1.20
2019-05-30T17:26:05.525Z,1.20
2019-05-30T17:28:53.959Z,1.10
2019-05-30T17:31:42.515Z,1.20
2019-05-30T17:34:31.091Z,1.10
2019-05-30T17:37:20.284Z,1.12
2019-05-30T17:40:10.891Z,0.98
2019-05-30T17:42:59.752Z,1.40
2019-05-30T17:45:48.348Z,1.20
2019-05-30T17:48:36.780Z,1.30
2019-05-30T17:51:25.893Z,1.35
2019-05-30T17:54:14.758Z,1.15
2019-05-30T17:57:03.903Z,1.40
2019-05-30T17:59:52.548Z,1.40
2019-05-30T18:02:41.784Z,1.40
2019-05-30T18:05:30.980Z,1.50
2019-05-30T18:08:20.852Z,1.40
2019-05-30T18:11:09.776Z,1.60
2019-05-30T18:13:58.076Z,1.62
2019-05-30T18:16:46.556Z,1.70
2019-05-30T18:19:35.366Z,1.50
2019-05-30T18:22:23.745Z,2.05
2019-05-30T18:25:13.257Z,2.10
2019-05-30T18:28:02.256Z,3.00
2019-05-30T18:30:50.900Z,2.30
2019-05-30T18:33:39.394Z,2.37
2019-05-30T18:36:28.383Z,2.25
2019-05-30T18:39:17.525Z,2.50
2019-05-30T18:42:06.287Z,2.77
2019-05-30T18:44:55.001Z,2.45
2019-05-30T18:47:43.843Z,2.45
2019-05-30T18:50:33.519Z,2.50
2019-05-30T18:53:22.235Z,2.22
2019-05-30T18:56:11.136Z,2.30
2019-05-30T18:58:59.752Z,1.90
2019-05-30T19:01:48.096Z,2.17
2019-05-30T19:04:36.510Z,1.85
2019-05-30T19:07:25.204Z,1.77
2019-05-30T19:10:13.930Z,1.60
2019-05-30T19:13:02.506Z,1.50
2019-05-30T19:15:51.099Z,1.70
2019-05-30T19:18:39.388Z,1.65
2019-05-30T19:21:28.231Z,1.60
2019-05-30T19:24:16.552Z,1.72
2019-05-30T19:27:05.186Z,1.60
2019-05-30T19:29:53.684Z,1.60
2019-05-30T19:32:44.869Z,1.67
2019-05-30T19:35:33.682Z,1.92
2019-05-30T19:38:22.553Z,1.70
2019-05-30T19:41:11.040Z,1.70
2019-05-30T19:43:59.389Z,1.90
2019-05-30T19:46:48.014Z,2.02
2019-05-30T19:49:36.904Z,1.77
2019-05-30T19:52:25.475Z,1.95
2019-05-30T19:55:14.097Z,1.80
2019-05-30T19:58:02.498Z,2.00
2019-05-30T20:00:58.642Z,1.70
2019-05-30T20:03:45.149Z,1.87
2019-05-30T20:06:32.278Z,2.00
2019-05-30T20:09:22.403Z,1.80
2019-05-30T20:12:10.841Z,2.60
2019-05-30T20:14:59.544Z,2.62
2019-05-30T20:17:47.706Z,3.00
2019-05-30T20:20:50.623Z,2.75
2019-05-30T20:23:26.375Z,2.42
2019-05-30T20:26:14.803Z,2.20
2019-05-30T20:29:03.330Z,1.90
2019-05-30T20:31:51.936Z,2.30
2019-05-30T20:34:40.909Z,2.10
2019-05-30T20:37:30.052Z,2.35
2019-05-30T20:40:19.141Z,1.80
2019-05-30T20:43:07.490Z,1.98
2019-05-30T20:45:56.571Z,1.85
2019-05-30T20:48:45.410Z,1.80
2019-05-30T20:51:35.515Z,1.50
2019-05-30T20:54:24.541Z,1.77
2019-05-30T20:57:13.403Z,1.60
2019-05-30T21:00:02.245Z,1.50
2019-05-30T21:02:52.318Z,1.50
2019-05-30T21:05:41.970Z,1.60
2019-05-30T21:08:31.713Z,1.27
2019-05-30T21:11:21.285Z,1.62
2019-05-30T21:14:11.110Z,1.70
2019-05-30T21:17:00.927Z,1.70
2019-05-30T21:19:49.406Z,1.50
2019-05-30T21:22:38.171Z,1.32
2019-05-30T21:25:26.773Z,1.50
2019-05-30T21:28:15.311Z,1.70
2019-05-30T21:31:03.649Z,1.70
2019-05-30T21:33:52.599Z,1.30
2019-05-30T21:36:41.926Z,1.30
2019-05-30T21:39:30.647Z,1.50
2019-05-30T21:42:19.755Z,1.70
2019-05-30T21:45:08.617Z,1.72
2019-05-30T21:47:57.429Z,1.70
2019-05-30T21:50:47.432Z,1.55
2019-05-30T21:53:36.087Z,1.57
2019-05-30T21:56:24.683Z,1.37
2019-05-30T21:59:13.536Z,1.70
2019-05-30T22:02:02.193Z,1.70
2019-05-30T22:04:50.799Z,1.52
2019-05-30T22:07:40.890Z,1.70
2019-05-30T22:10:29.867Z,1.92
2019-05-30T22:13:18.472Z,1.60
2019-05-30T22:16:07.050Z,1.60
2019-05-30T22:18:55.646Z,1.70
2019-05-30T22:21:44.220Z,1.57
2019-05-30T22:24:32.839Z,1.60
2019-05-30T22:27:21.434Z,1.80
2019-05-30T22:30:10.110Z,1.80
2019-05-30T22:32:58.615Z,1.50
2019-05-30T22:35:47.457Z,1.80
2019-05-30T22:38:36.306Z,1.82
2019-05-30T22:41:24.835Z,2.00
2019-05-30T22:44:13.405Z,1.60
2019-05-30T22:47:01.938Z,1.67
2019-05-30T22:49:50.919Z,2.02
2019-05-30T22:52:39.760Z,1.95
2019-05-30T22:55:32.529Z,1.90
2019-05-30T22:58:21.854Z,1.90
2019-05-30T23:01:10.205Z,1.92
2019-05-30T23:03:59.234Z,1.70
2019-05-30T23:06:48.286Z,1.80
2019-05-30T23:09:37.172Z,1.70
2019-05-30T23:12:26.299Z,1.90
2019-05-30T23:15:15.387Z,1.90
2019-05-30T23:18:03.884Z,2.42
2019-05-30T23:20:52.828Z,1.92
2019-05-30T23:23:41.166Z,1.87
2019-05-30T23:26:30.262Z,1.72
2019-05-30T23:29:18.848Z,1.87
2019-05-30T23:32:07.444Z,1.67
2019-05-30T23:34:56.385Z,1.90
2019-05-30T23:37:45.367Z,1.98
2019-05-30T23:40:34.127Z,2.20
2019-05-30T23:43:23.048Z,1.80
2019-05-30T23:46:11.881Z,1.85
2019-05-30T23:49:00.249Z,1.70
2019-05-30T23:51:49.921Z,1.60
2019-05-30T23:54:38.454Z,1.80
2019-05-30T23:57:27.178Z,1.60
